sensor_id;sensor_type;location;lat;lon;timestamp;P1;durP1;ratioP1;P2;durP2;ratioP2
62933;SDS011;49038;47.600;19.242;2023-05-07T00:02:48;7.45;;;4.85;;
62933;SDS011;49038;47.600;19.242;2023-05-07T00:05:51;8.32;;;5.32;;
62933;SDS011;49038;47.600;19.242;2023-05-07T00:08:55;8.65;;;5.10;;
62933;SDS011;49038;47.600;19.242;2023-05-07T00:11:58;9.02;;;5.40;;
62933;SDS011;49038;47.600;19.242;2023-05-07T00:15:01;10.27;;;6.05;;
62933;SDS011;49038;47.600;19.242;2023-05-07T00:18:05;12.18;;;6.20;;
62933;SDS011;49038;47.600;19.242;2023-05-07T00:21:07;9.43;;;5.35;;
62933;SDS011;49038;47.600;19.242;2023-05-07T00:24:09;8.65;;;5.62;;
62933;SDS011;49038;47.600;19.242;2023-05-07T00:27:12;10.00;;;6.47;;
62933;SDS011;49038;47.600;19.242;2023-05-07T00:30:14;9.93;;;6.30;;
62933;SDS011;49038;47.600;19.242;2023-05-07T00:33:16;8.00;;;5.43;;
62933;SDS011;49038;47.600;19.242;2023-05-07T00:36:18;9.35;;;5.60;;
62933;SDS011;49038;47.600;19.242;2023-05-07T00:39:21;11.73;;;6.32;;
62933;SDS011;49038;47.600;19.242;2023-05-07T00:42:23;9.85;;;5.68;;
62933;SDS011;49038;47.600;19.242;2023-05-07T00:45:26;10.10;;;6.10;;
62933;SDS011;49038;47.600;19.242;2023-05-07T00:48:29;8.60;;;5.87;;
62933;SDS011;49038;47.600;19.242;2023-05-07T00:51:32;11.23;;;6.65;;
62933;SDS011;49038;47.600;19.242;2023-05-07T00:54:35;10.50;;;6.68;;
62933;SDS011;49038;47.600;19.242;2023-05-07T00:57:37;9.43;;;5.87;;
62933;SDS011;49038;47.600;19.242;2023-05-07T01:00:41;11.20;;;5.30;;
62933;SDS011;49038;47.600;19.242;2023-05-07T01:03:43;9.18;;;6.28;;
62933;SDS011;49038;47.600;19.242;2023-05-07T01:06:46;11.00;;;6.65;;
62933;SDS011;49038;47.600;19.242;2023-05-07T01:09:49;14.65;;;7.50;;
62933;SDS011;49038;47.600;19.242;2023-05-07T01:12:51;9.60;;;6.32;;
62933;SDS011;49038;47.600;19.242;2023-05-07T01:15:54;11.45;;;6.50;;
62933;SDS011;49038;47.600;19.242;2023-05-07T01:18:56;10.40;;;5.62;;
62933;SDS011;49038;47.600;19.242;2023-05-07T01:22:08;9.10;;;6.43;;
62933;SDS011;49038;47.600;19.242;2023-05-07T01:25:12;10.23;;;6.40;;
62933;SDS011;49038;47.600;19.242;2023-05-07T01:28:15;8.82;;;6.32;;
62933;SDS011;49038;47.600;19.242;2023-05-07T01:31:17;10.55;;;6.57;;
62933;SDS011;49038;47.600;19.242;2023-05-07T01:34:20;9.07;;;6.45;;
62933;SDS011;49038;47.600;19.242;2023-05-07T01:37:23;9.60;;;6.10;;
62933;SDS011;49038;47.600;19.242;2023-05-07T01:40:25;12.95;;;6.82;;
62933;SDS011;49038;47.600;19.242;2023-05-07T01:43:28;9.48;;;6.78;;
62933;SDS011;49038;47.600;19.242;2023-05-07T01:46:31;13.82;;;7.60;;
62933;SDS011;49038;47.600;19.242;2023-05-07T01:49:34;9.77;;;6.75;;
62933;SDS011;49038;47.600;19.242;2023-05-07T01:52:39;10.15;;;6.65;;
62933;SDS011;49038;47.600;19.242;2023-05-07T01:55:42;10.15;;;6.93;;
62933;SDS011;49038;47.600;19.242;2023-05-07T01:58:45;11.25;;;6.82;;
62933;SDS011;49038;47.600;19.242;2023-05-07T02:01:50;10.65;;;6.72;;
62933;SDS011;49038;47.600;19.242;2023-05-07T02:04:52;9.18;;;6.30;;
62933;SDS011;49038;47.600;19.242;2023-05-07T02:07:55;8.57;;;6.50;;
62933;SDS011;49038;47.600;19.242;2023-05-07T02:10:57;13.02;;;6.22;;
62933;SDS011;49038;47.600;19.242;2023-05-07T02:13:59;11.60;;;7.50;;
62933;SDS011;49038;47.600;19.242;2023-05-07T02:17:01;14.57;;;7.25;;
62933;SDS011;49038;47.600;19.242;2023-05-07T02:20:04;10.18;;;6.70;;
62933;SDS011;49038;47.600;19.242;2023-05-07T02:23:06;10.60;;;6.70;;
62933;SDS011;49038;47.600;19.242;2023-05-07T02:26:09;11.27;;;7.30;;
62933;SDS011;49038;47.600;19.242;2023-05-07T02:29:12;10.40;;;7.10;;
62933;SDS011;49038;47.600;19.242;2023-05-07T02:32:15;10.85;;;7.05;;
62933;SDS011;49038;47.600;19.242;2023-05-07T02:35:17;12.85;;;7.15;;
62933;SDS011;49038;47.600;19.242;2023-05-07T02:38:19;10.40;;;7.53;;
62933;SDS011;49038;47.600;19.242;2023-05-07T02:41:21;10.98;;;7.65;;
62933;SDS011;49038;47.600;19.242;2023-05-07T02:44:24;16.35;;;8.10;;
62933;SDS011;49038;47.600;19.242;2023-05-07T02:47:26;11.88;;;6.78;;
62933;SDS011;49038;47.600;19.242;2023-05-07T02:50:29;11.60;;;6.78;;
62933;SDS011;49038;47.600;19.242;2023-05-07T02:53:32;13.70;;;7.43;;
62933;SDS011;49038;47.600;19.242;2023-05-07T02:56:34;13.93;;;6.87;;
62933;SDS011;49038;47.600;19.242;2023-05-07T02:59:36;10.20;;;5.80;;
62933;SDS011;49038;47.600;19.242;2023-05-07T03:02:38;11.40;;;7.35;;
62933;SDS011;49038;47.600;19.242;2023-05-07T03:05:41;10.73;;;6.65;;
62933;SDS011;49038;47.600;19.242;2023-05-07T03:08:43;10.82;;;7.07;;
62933;SDS011;49038;47.600;19.242;2023-05-07T03:11:45;13.27;;;7.75;;
62933;SDS011;49038;47.600;19.242;2023-05-07T03:14:48;11.93;;;6.82;;
62933;SDS011;49038;47.600;19.242;2023-05-07T03:17:50;15.25;;;7.57;;
62933;SDS011;49038;47.600;19.242;2023-05-07T03:20:52;15.50;;;6.87;;
62933;SDS011;49038;47.600;19.242;2023-05-07T03:23:55;11.00;;;6.43;;
62933;SDS011;49038;47.600;19.242;2023-05-07T03:26:57;12.27;;;6.53;;
62933;SDS011;49038;47.600;19.242;2023-05-07T03:29:59;11.48;;;6.53;;
62933;SDS011;49038;47.600;19.242;2023-05-07T03:33:02;10.63;;;6.37;;
62933;SDS011;49038;47.600;19.242;2023-05-07T03:36:04;11.85;;;6.87;;
62933;SDS011;49038;47.600;19.242;2023-05-07T03:39:06;11.30;;;7.37;;
62933;SDS011;49038;47.600;19.242;2023-05-07T03:42:09;11.55;;;7.00;;
62933;SDS011;49038;47.600;19.242;2023-05-07T03:45:11;9.13;;;5.50;;
62933;SDS011;49038;47.600;19.242;2023-05-07T03:48:13;13.98;;;7.45;;
62933;SDS011;49038;47.600;19.242;2023-05-07T03:51:15;11.88;;;7.03;;
62933;SDS011;49038;47.600;19.242;2023-05-07T03:54:17;12.77;;;7.18;;
62933;SDS011;49038;47.600;19.242;2023-05-07T03:57:20;9.13;;;6.70;;
62933;SDS011;49038;47.600;19.242;2023-05-07T04:00:22;10.40;;;7.45;;
62933;SDS011;49038;47.600;19.242;2023-05-07T04:03:24;14.35;;;8.05;;
62933;SDS011;49038;47.600;19.242;2023-05-07T04:06:27;12.80;;;6.60;;
62933;SDS011;49038;47.600;19.242;2023-05-07T04:09:29;12.93;;;6.80;;
62933;SDS011;49038;47.600;19.242;2023-05-07T04:12:31;10.68;;;6.68;;
62933;SDS011;49038;47.600;19.242;2023-05-07T04:15:34;11.48;;;6.47;;
62933;SDS011;49038;47.600;19.242;2023-05-07T04:18:37;13.00;;;7.65;;
62933;SDS011;49038;47.600;19.242;2023-05-07T04:21:39;10.60;;;6.53;;
62933;SDS011;49038;47.600;19.242;2023-05-07T04:24:42;12.75;;;7.28;;
62933;SDS011;49038;47.600;19.242;2023-05-07T04:27:44;11.27;;;7.75;;
62933;SDS011;49038;47.600;19.242;2023-05-07T04:30:46;14.25;;;7.15;;
62933;SDS011;49038;47.600;19.242;2023-05-07T04:33:48;14.38;;;8.10;;
62933;SDS011;49038;47.600;19.242;2023-05-07T04:36:50;13.40;;;7.00;;
62933;SDS011;49038;47.600;19.242;2023-05-07T04:39:53;10.70;;;6.97;;
62933;SDS011;49038;47.600;19.242;2023-05-07T04:42:55;12.65;;;7.03;;
62933;SDS011;49038;47.600;19.242;2023-05-07T04:45:57;11.95;;;7.50;;
62933;SDS011;49038;47.600;19.242;2023-05-07T04:48:59;15.80;;;7.82;;
62933;SDS011;49038;47.600;19.242;2023-05-07T04:52:01;15.18;;;8.02;;
62933;SDS011;49038;47.600;19.242;2023-05-07T04:55:05;13.90;;;7.68;;
62933;SDS011;49038;47.600;19.242;2023-05-07T04:58:08;11.65;;;7.85;;
62933;SDS011;49038;47.600;19.242;2023-05-07T05:01:10;13.60;;;7.68;;
62933;SDS011;49038;47.600;19.242;2023-05-07T05:04:13;12.25;;;7.70;;
62933;SDS011;49038;47.600;19.242;2023-05-07T05:07:15;13.05;;;7.82;;
62933;SDS011;49038;47.600;19.242;2023-05-07T05:10:17;13.85;;;8.75;;
62933;SDS011;49038;47.600;19.242;2023-05-07T05:13:19;15.80;;;8.63;;
62933;SDS011;49038;47.600;19.242;2023-05-07T05:16:22;14.05;;;8.77;;
62933;SDS011;49038;47.600;19.242;2023-05-07T05:19:24;15.48;;;8.25;;
62933;SDS011;49038;47.600;19.242;2023-05-07T05:22:26;12.65;;;7.68;;
62933;SDS011;49038;47.600;19.242;2023-05-07T05:25:31;13.95;;;7.47;;
62933;SDS011;49038;47.600;19.242;2023-05-07T05:28:34;11.80;;;7.50;;
62933;SDS011;49038;47.600;19.242;2023-05-07T05:31:36;12.60;;;7.30;;
62933;SDS011;49038;47.600;19.242;2023-05-07T05:34:39;14.60;;;7.90;;
62933;SDS011;49038;47.600;19.242;2023-05-07T05:37:41;12.52;;;7.20;;
62933;SDS011;49038;47.600;19.242;2023-05-07T05:40:44;12.02;;;6.85;;
62933;SDS011;49038;47.600;19.242;2023-05-07T05:43:46;15.55;;;8.70;;
62933;SDS011;49038;47.600;19.242;2023-05-07T05:46:48;12.73;;;7.87;;
62933;SDS011;49038;47.600;19.242;2023-05-07T05:49:51;12.20;;;7.55;;
62933;SDS011;49038;47.600;19.242;2023-05-07T05:52:54;10.45;;;6.95;;
62933;SDS011;49038;47.600;19.242;2023-05-07T05:55:56;16.05;;;8.02;;
62933;SDS011;49038;47.600;19.242;2023-05-07T05:58:58;9.73;;;6.53;;
62933;SDS011;49038;47.600;19.242;2023-05-07T06:02:01;10.90;;;6.25;;
62933;SDS011;49038;47.600;19.242;2023-05-07T06:05:04;8.45;;;5.55;;
62933;SDS011;49038;47.600;19.242;2023-05-07T06:08:07;8.70;;;5.80;;
62933;SDS011;49038;47.600;19.242;2023-05-07T06:11:09;8.95;;;6.45;;
62933;SDS011;49038;47.600;19.242;2023-05-07T06:14:12;8.52;;;5.60;;
62933;SDS011;49038;47.600;19.242;2023-05-07T06:17:14;8.45;;;4.80;;
62933;SDS011;49038;47.600;19.242;2023-05-07T06:20:16;6.72;;;4.90;;
62933;SDS011;49038;47.600;19.242;2023-05-07T06:23:18;6.75;;;4.15;;
62933;SDS011;49038;47.600;19.242;2023-05-07T06:26:20;5.90;;;3.90;;
62933;SDS011;49038;47.600;19.242;2023-05-07T06:29:23;4.95;;;3.00;;
62933;SDS011;49038;47.600;19.242;2023-05-07T06:32:27;7.60;;;3.42;;
62933;SDS011;49038;47.600;19.242;2023-05-07T06:35:29;10.00;;;2.95;;
62933;SDS011;49038;47.600;19.242;2023-05-07T06:38:31;4.07;;;2.90;;
62933;SDS011;49038;47.600;19.242;2023-05-07T06:41:34;3.55;;;2.75;;
62933;SDS011;49038;47.600;19.242;2023-05-07T06:44:37;3.20;;;2.25;;
62933;SDS011;49038;47.600;19.242;2023-05-07T06:47:39;3.37;;;2.40;;
62933;SDS011;49038;47.600;19.242;2023-05-07T06:50:41;3.28;;;2.50;;
62933;SDS011;49038;47.600;19.242;2023-05-07T06:53:44;4.37;;;3.00;;
62933;SDS011;49038;47.600;19.242;2023-05-07T06:56:46;4.47;;;3.35;;
62933;SDS011;49038;47.600;19.242;2023-05-07T06:59:48;3.22;;;2.40;;
62933;SDS011;49038;47.600;19.242;2023-05-07T07:02:50;2.50;;;2.28;;
62933;SDS011;49038;47.600;19.242;2023-05-07T07:05:53;3.83;;;2.40;;
62933;SDS011;49038;47.600;19.242;2023-05-07T07:08:55;4.72;;;2.62;;
62933;SDS011;49038;47.600;19.242;2023-05-07T07:11:58;2.87;;;2.08;;
62933;SDS011;49038;47.600;19.242;2023-05-07T07:15:00;4.28;;;2.40;;
62933;SDS011;49038;47.600;19.242;2023-05-07T07:18:02;3.00;;;2.28;;
62933;SDS011;49038;47.600;19.242;2023-05-07T07:21:04;3.58;;;2.45;;
62933;SDS011;49038;47.600;19.242;2023-05-07T07:24:07;4.22;;;2.62;;
62933;SDS011;49038;47.600;19.242;2023-05-07T07:27:09;7.37;;;2.92;;
62933;SDS011;49038;47.600;19.242;2023-05-07T07:30:11;6.18;;;2.03;;
62933;SDS011;49038;47.600;19.242;2023-05-07T07:33:14;2.35;;;1.87;;
62933;SDS011;49038;47.600;19.242;2023-05-07T07:36:16;3.72;;;2.05;;
62933;SDS011;49038;47.600;19.242;2023-05-07T07:39:19;4.22;;;1.83;;
62933;SDS011;49038;47.600;19.242;2023-05-07T07:42:21;2.67;;;1.83;;
62933;SDS011;49038;47.600;19.242;2023-05-07T07:45:23;1.80;;;1.25;;
62933;SDS011;49038;47.600;19.242;2023-05-07T07:48:25;1.60;;;1.35;;
62933;SDS011;49038;47.600;19.242;2023-05-07T07:51:28;1.20;;;1.10;;
62933;SDS011;49038;47.600;19.242;2023-05-07T07:54:30;1.27;;;1.00;;
62933;SDS011;49038;47.600;19.242;2023-05-07T07:57:32;1.00;;;0.90;;
62933;SDS011;49038;47.600;19.242;2023-05-07T08:00:35;1.12;;;0.80;;
62933;SDS011;49038;47.600;19.242;2023-05-07T08:03:37;2.08;;;0.80;;
62933;SDS011;49038;47.600;19.242;2023-05-07T08:06:40;1.15;;;1.05;;
62933;SDS011;49038;47.600;19.242;2023-05-07T08:09:42;6.10;;;2.35;;
62933;SDS011;49038;47.600;19.242;2023-05-07T08:12:44;1.10;;;1.00;;
62933;SDS011;49038;47.600;19.242;2023-05-07T08:15:46;0.88;;;0.85;;
62933;SDS011;49038;47.600;19.242;2023-05-07T08:18:49;2.17;;;0.90;;
62933;SDS011;49038;47.600;19.242;2023-05-07T08:21:51;1.40;;;0.85;;
62933;SDS011;49038;47.600;19.242;2023-05-07T08:24:53;1.10;;;1.00;;
62933;SDS011;49038;47.600;19.242;2023-05-07T08:27:55;0.80;;;0.80;;
62933;SDS011;49038;47.600;19.242;2023-05-07T08:30:58;1.02;;;0.93;;
62933;SDS011;49038;47.600;19.242;2023-05-07T08:34:03;1.00;;;0.90;;
62933;SDS011;49038;47.600;19.242;2023-05-07T08:37:05;1.33;;;1.10;;
62933;SDS011;49038;47.600;19.242;2023-05-07T08:40:07;2.30;;;1.30;;
62933;SDS011;49038;47.600;19.242;2023-05-07T08:43:14;2.47;;;1.40;;
62933;SDS011;49038;47.600;19.242;2023-05-07T08:46:18;2.08;;;1.87;;
62933;SDS011;49038;47.600;19.242;2023-05-07T08:49:21;1.40;;;1.10;;
62933;SDS011;49038;47.600;19.242;2023-05-07T08:52:23;1.33;;;1.20;;
62933;SDS011;49038;47.600;19.242;2023-05-07T08:55:26;1.65;;;1.10;;
62933;SDS011;49038;47.600;19.242;2023-05-07T08:58:30;1.48;;;1.30;;
62933;SDS011;49038;47.600;19.242;2023-05-07T09:01:32;1.27;;;1.17;;
62933;SDS011;49038;47.600;19.242;2023-05-07T09:04:37;1.90;;;1.20;;
62933;SDS011;49038;47.600;19.242;2023-05-07T09:07:39;1.23;;;1.10;;
62933;SDS011;49038;47.600;19.242;2023-05-07T09:10:42;1.90;;;1.15;;
62933;SDS011;49038;47.600;19.242;2023-05-07T09:13:44;1.92;;;1.10;;
62933;SDS011;49038;47.600;19.242;2023-05-07T09:16:46;1.23;;;1.12;;
62933;SDS011;49038;47.600;19.242;2023-05-07T09:19:49;2.92;;;1.27;;
62933;SDS011;49038;47.600;19.242;2023-05-07T09:22:51;1.25;;;1.15;;
62933;SDS011;49038;47.600;19.242;2023-05-07T09:25:54;1.20;;;1.10;;
62933;SDS011;49038;47.600;19.242;2023-05-07T09:29:02;1.70;;;1.10;;
62933;SDS011;49038;47.600;19.242;2023-05-07T09:32:05;2.12;;;1.42;;
62933;SDS011;49038;47.600;19.242;2023-05-07T09:35:14;1.55;;;1.20;;
62933;SDS011;49038;47.600;19.242;2023-05-07T09:38:18;1.83;;;1.70;;
62933;SDS011;49038;47.600;19.242;2023-05-07T09:41:22;2.33;;;1.10;;
62933;SDS011;49038;47.600;19.242;2023-05-07T09:44:24;1.40;;;1.30;;
62933;SDS011;49038;47.600;19.242;2023-05-07T09:47:28;3.15;;;1.27;;
62933;SDS011;49038;47.600;19.242;2023-05-07T09:50:39;1.90;;;1.40;;
62933;SDS011;49038;47.600;19.242;2023-05-07T09:53:44;1.65;;;1.40;;
62933;SDS011;49038;47.600;19.242;2023-05-07T09:56:48;2.33;;;1.42;;
62933;SDS011;49038;47.600;19.242;2023-05-07T09:59:50;1.35;;;1.25;;
62933;SDS011;49038;47.600;19.242;2023-05-07T10:02:54;2.05;;;1.60;;
62933;SDS011;49038;47.600;19.242;2023-05-07T10:05:57;3.72;;;1.45;;
62933;SDS011;49038;47.600;19.242;2023-05-07T10:09:00;1.20;;;1.10;;
62933;SDS011;49038;47.600;19.242;2023-05-07T10:12:03;3.35;;;1.60;;
62933;SDS011;49038;47.600;19.242;2023-05-07T10:15:07;1.52;;;1.40;;
62933;SDS011;49038;47.600;19.242;2023-05-07T10:18:11;1.70;;;1.40;;
62933;SDS011;49038;47.600;19.242;2023-05-07T10:21:18;2.20;;;1.58;;
62933;SDS011;49038;47.600;19.242;2023-05-07T10:27:28;2.25;;;1.30;;
62933;SDS011;49038;47.600;19.242;2023-05-07T10:33:39;1.55;;;1.30;;
62933;SDS011;49038;47.600;19.242;2023-05-07T10:36:42;5.32;;;1.65;;
62933;SDS011;49038;47.600;19.242;2023-05-07T10:39:44;1.40;;;1.30;;
62933;SDS011;49038;47.600;19.242;2023-05-07T10:42:56;1.83;;;1.48;;
62933;SDS011;49038;47.600;19.242;2023-05-07T10:46:17;1.55;;;1.45;;
62933;SDS011;49038;47.600;19.242;2023-05-07T10:49:21;1.77;;;1.20;;
62933;SDS011;49038;47.600;19.242;2023-05-07T10:52:25;1.62;;;1.27;;
62933;SDS011;49038;47.600;19.242;2023-05-07T10:55:32;1.48;;;1.30;;
62933;SDS011;49038;47.600;19.242;2023-05-07T10:58:34;1.92;;;1.40;;
62933;SDS011;49038;47.600;19.242;2023-05-07T11:01:55;2.33;;;1.37;;
62933;SDS011;49038;47.600;19.242;2023-05-07T11:08:25;1.50;;;1.00;;
62933;SDS011;49038;47.600;19.242;2023-05-07T11:14:49;1.12;;;1.00;;
62933;SDS011;49038;47.600;19.242;2023-05-07T11:17:57;1.37;;;1.20;;
62933;SDS011;49038;47.600;19.242;2023-05-07T11:21:00;1.42;;;1.10;;
62933;SDS011;49038;47.600;19.242;2023-05-07T11:24:04;1.50;;;1.40;;
62933;SDS011;49038;47.600;19.242;2023-05-07T11:27:10;1.20;;;1.10;;
62933;SDS011;49038;47.600;19.242;2023-05-07T11:30:18;1.58;;;1.10;;
62933;SDS011;49038;47.600;19.242;2023-05-07T11:33:21;1.85;;;1.10;;
62933;SDS011;49038;47.600;19.242;2023-05-07T11:36:24;2.12;;;1.20;;
62933;SDS011;49038;47.600;19.242;2023-05-07T11:39:28;1.33;;;1.10;;
62933;SDS011;49038;47.600;19.242;2023-05-07T11:42:35;2.05;;;1.42;;
62933;SDS011;49038;47.600;19.242;2023-05-07T11:45:41;4.03;;;1.67;;
62933;SDS011;49038;47.600;19.242;2023-05-07T11:48:43;1.65;;;1.40;;
62933;SDS011;49038;47.600;19.242;2023-05-07T11:51:46;2.22;;;1.40;;
62933;SDS011;49038;47.600;19.242;2023-05-07T11:54:49;1.83;;;1.27;;
62933;SDS011;49038;47.600;19.242;2023-05-07T11:57:54;1.85;;;1.65;;
62933;SDS011;49038;47.600;19.242;2023-05-07T12:00:57;1.92;;;1.73;;
62933;SDS011;49038;47.600;19.242;2023-05-07T12:03:59;1.90;;;1.62;;
62933;SDS011;49038;47.600;19.242;2023-05-07T12:07:05;2.15;;;1.65;;
62933;SDS011;49038;47.600;19.242;2023-05-07T12:10:12;2.10;;;1.50;;
62933;SDS011;49038;47.600;19.242;2023-05-07T12:16:17;1.92;;;1.70;;
62933;SDS011;49038;47.600;19.242;2023-05-07T12:19:21;2.40;;;1.80;;
62933;SDS011;49038;47.600;19.242;2023-05-07T12:22:23;2.30;;;1.73;;
62933;SDS011;49038;47.600;19.242;2023-05-07T12:25:25;4.97;;;1.80;;
62933;SDS011;49038;47.600;19.242;2023-05-07T12:28:28;2.25;;;1.62;;
62933;SDS011;49038;47.600;19.242;2023-05-07T12:31:30;2.50;;;1.48;;
62933;SDS011;49038;47.600;19.242;2023-05-07T12:34:32;2.03;;;1.60;;
62933;SDS011;49038;47.600;19.242;2023-05-07T12:37:35;1.77;;;1.52;;
62933;SDS011;49038;47.600;19.242;2023-05-07T12:40:44;11.15;;;1.70;;
62933;SDS011;49038;47.600;19.242;2023-05-07T12:43:48;2.42;;;1.80;;
62933;SDS011;49038;47.600;19.242;2023-05-07T12:46:51;2.85;;;1.45;;
62933;SDS011;49038;47.600;19.242;2023-05-07T12:49:54;2.35;;;1.70;;
62933;SDS011;49038;47.600;19.242;2023-05-07T12:52:56;3.12;;;1.40;;
62933;SDS011;49038;47.600;19.242;2023-05-07T12:55:59;3.05;;;1.58;;
62933;SDS011;49038;47.600;19.242;2023-05-07T12:59:01;2.30;;;1.80;;
62933;SDS011;49038;47.600;19.242;2023-05-07T13:02:04;1.65;;;1.37;;
62933;SDS011;49038;47.600;19.242;2023-05-07T13:05:07;1.98;;;1.50;;
62933;SDS011;49038;47.600;19.242;2023-05-07T13:08:10;1.60;;;1.50;;
62933;SDS011;49038;47.600;19.242;2023-05-07T13:11:13;1.90;;;1.45;;
62933;SDS011;49038;47.600;19.242;2023-05-07T13:14:15;2.50;;;1.65;;
62933;SDS011;49038;47.600;19.242;2023-05-07T13:17:18;1.80;;;1.40;;
62933;SDS011;49038;47.600;19.242;2023-05-07T13:20:20;1.75;;;1.55;;
62933;SDS011;49038;47.600;19.242;2023-05-07T13:23:23;1.40;;;1.20;;
62933;SDS011;49038;47.600;19.242;2023-05-07T13:26:25;1.48;;;1.35;;
62933;SDS011;49038;47.600;19.242;2023-05-07T13:29:28;1.52;;;1.27;;
62933;SDS011;49038;47.600;19.242;2023-05-07T13:32:32;1.92;;;1.70;;
62933;SDS011;49038;47.600;19.242;2023-05-07T13:35:34;3.80;;;1.75;;
62933;SDS011;49038;47.600;19.242;2023-05-07T13:38:36;1.67;;;1.50;;
62933;SDS011;49038;47.600;19.242;2023-05-07T13:41:39;2.37;;;1.35;;
62933;SDS011;49038;47.600;19.242;2023-05-07T13:44:41;1.67;;;1.58;;
62933;SDS011;49038;47.600;19.242;2023-05-07T13:47:45;2.12;;;1.58;;
62933;SDS011;49038;47.600;19.242;2023-05-07T13:50:48;1.60;;;1.50;;
62933;SDS011;49038;47.600;19.242;2023-05-07T13:53:50;3.80;;;2.12;;
62933;SDS011;49038;47.600;19.242;2023-05-07T13:56:54;2.03;;;1.40;;
62933;SDS011;49038;47.600;19.242;2023-05-07T13:59:56;1.65;;;1.37;;
62933;SDS011;49038;47.600;19.242;2023-05-07T14:02:58;1.42;;;1.33;;
62933;SDS011;49038;47.600;19.242;2023-05-07T14:06:01;1.83;;;1.35;;
62933;SDS011;49038;47.600;19.242;2023-05-07T14:09:03;4.40;;;1.40;;
62933;SDS011;49038;47.600;19.242;2023-05-07T14:12:06;1.08;;;0.98;;
62933;SDS011;49038;47.600;19.242;2023-05-07T14:15:08;1.48;;;1.20;;
62933;SDS011;49038;47.600;19.242;2023-05-07T14:18:11;1.55;;;1.10;;
62933;SDS011;49038;47.600;19.242;2023-05-07T14:21:13;1.98;;;1.35;;
62933;SDS011;49038;47.600;19.242;2023-05-07T14:24:16;1.42;;;1.30;;
62933;SDS011;49038;47.600;19.242;2023-05-07T14:27:38;1.50;;;1.40;;
62933;SDS011;49038;47.600;19.242;2023-05-07T14:30:40;3.17;;;1.40;;
62933;SDS011;49038;47.600;19.242;2023-05-07T14:33:42;2.00;;;1.67;;
62933;SDS011;49038;47.600;19.242;2023-05-07T14:36:45;2.47;;;1.67;;
62933;SDS011;49038;47.600;19.242;2023-05-07T14:39:47;1.62;;;1.45;;
62933;SDS011;49038;47.600;19.242;2023-05-07T14:42:51;1.98;;;1.40;;
62933;SDS011;49038;47.600;19.242;2023-05-07T14:45:53;2.20;;;1.80;;
62933;SDS011;49038;47.600;19.242;2023-05-07T14:48:56;1.67;;;1.30;;
62933;SDS011;49038;47.600;19.242;2023-05-07T14:51:58;1.35;;;1.10;;
62933;SDS011;49038;47.600;19.242;2023-05-07T14:55:02;2.53;;;1.30;;
62933;SDS011;49038;47.600;19.242;2023-05-07T14:58:04;2.42;;;1.62;;
62933;SDS011;49038;47.600;19.242;2023-05-07T15:01:06;1.48;;;1.10;;
62933;SDS011;49038;47.600;19.242;2023-05-07T15:04:09;3.90;;;1.60;;
62933;SDS011;49038;47.600;19.242;2023-05-07T15:07:11;2.47;;;1.52;;
62933;SDS011;49038;47.600;19.242;2023-05-07T15:10:17;1.40;;;1.30;;
62933;SDS011;49038;47.600;19.242;2023-05-07T15:13:19;1.65;;;1.45;;
62933;SDS011;49038;47.600;19.242;2023-05-07T15:16:21;2.55;;;1.33;;
62933;SDS011;49038;47.600;19.242;2023-05-07T15:19:24;2.00;;;1.70;;
62933;SDS011;49038;47.600;19.242;2023-05-07T15:22:30;1.83;;;1.30;;
62933;SDS011;49038;47.600;19.242;2023-05-07T15:25:32;2.20;;;1.65;;
62933;SDS011;49038;47.600;19.242;2023-05-07T15:28:35;2.53;;;1.92;;
62933;SDS011;49038;47.600;19.242;2023-05-07T15:31:38;2.22;;;1.50;;
62933;SDS011;49038;47.600;19.242;2023-05-07T15:34:41;2.05;;;1.50;;
62933;SDS011;49038;47.600;19.242;2023-05-07T15:37:43;2.45;;;1.40;;
62933;SDS011;49038;47.600;19.242;2023-05-07T15:40:45;2.17;;;1.40;;
62933;SDS011;49038;47.600;19.242;2023-05-07T15:43:48;6.40;;;1.50;;
62933;SDS011;49038;47.600;19.242;2023-05-07T15:46:52;2.65;;;1.48;;
62933;SDS011;49038;47.600;19.242;2023-05-07T15:49:55;2.17;;;1.80;;
62933;SDS011;49038;47.600;19.242;2023-05-07T15:52:57;2.42;;;1.60;;
62933;SDS011;49038;47.600;19.242;2023-05-07T15:55:59;3.33;;;1.50;;
62933;SDS011;49038;47.600;19.242;2023-05-07T15:59:02;2.12;;;1.87;;
62933;SDS011;49038;47.600;19.242;2023-05-07T16:02:05;1.62;;;1.50;;
62933;SDS011;49038;47.600;19.242;2023-05-07T16:05:08;2.00;;;1.52;;
62933;SDS011;49038;47.600;19.242;2023-05-07T16:08:12;2.00;;;1.55;;
62933;SDS011;49038;47.600;19.242;2023-05-07T16:11:14;2.17;;;1.50;;
62933;SDS011;49038;47.600;19.242;2023-05-07T16:14:16;2.00;;;1.50;;
62933;SDS011;49038;47.600;19.242;2023-05-07T16:17:19;1.83;;;1.50;;
62933;SDS011;49038;47.600;19.242;2023-05-07T16:20:21;5.43;;;1.90;;
62933;SDS011;49038;47.600;19.242;2023-05-07T16:23:24;3.03;;;1.65;;
62933;SDS011;49038;47.600;19.242;2023-05-07T16:26:26;2.65;;;1.50;;
62933;SDS011;49038;47.600;19.242;2023-05-07T16:29:28;2.97;;;1.80;;
62933;SDS011;49038;47.600;19.242;2023-05-07T16:32:31;1.87;;;1.40;;
62933;SDS011;49038;47.600;19.242;2023-05-07T16:35:33;1.65;;;1.40;;
62933;SDS011;49038;47.600;19.242;2023-05-07T16:38:35;4.65;;;1.73;;
62933;SDS011;49038;47.600;19.242;2023-05-07T16:41:39;2.30;;;1.35;;
62933;SDS011;49038;47.600;19.242;2023-05-07T16:44:41;2.47;;;1.90;;
62933;SDS011;49038;47.600;19.242;2023-05-07T16:47:43;1.37;;;1.12;;
62933;SDS011;49038;47.600;19.242;2023-05-07T16:50:46;1.37;;;1.10;;
62933;SDS011;49038;47.600;19.242;2023-05-07T16:53:49;2.80;;;1.70;;
62933;SDS011;49038;47.600;19.242;2023-05-07T16:56:52;1.73;;;1.30;;
62933;SDS011;49038;47.600;19.242;2023-05-07T16:59:54;1.83;;;1.60;;
62933;SDS011;49038;47.600;19.242;2023-05-07T17:02:57;1.67;;;1.30;;
62933;SDS011;49038;47.600;19.242;2023-05-07T17:05:59;2.22;;;1.33;;
62933;SDS011;49038;47.600;19.242;2023-05-07T17:09:01;1.55;;;1.20;;
62933;SDS011;49038;47.600;19.242;2023-05-07T17:12:04;1.48;;;1.37;;
62933;SDS011;49038;47.600;19.242;2023-05-07T17:15:06;1.55;;;1.15;;
62933;SDS011;49038;47.600;19.242;2023-05-07T17:18:09;1.95;;;1.45;;
62933;SDS011;49038;47.600;19.242;2023-05-07T17:21:11;7.72;;;2.08;;
62933;SDS011;49038;47.600;19.242;2023-05-07T17:24:13;3.12;;;1.85;;
62933;SDS011;49038;47.600;19.242;2023-05-07T17:27:16;2.90;;;1.85;;
62933;SDS011;49038;47.600;19.242;2023-05-07T17:30:18;5.15;;;1.52;;
62933;SDS011;49038;47.600;19.242;2023-05-07T17:33:21;1.95;;;1.45;;
62933;SDS011;49038;47.600;19.242;2023-05-07T17:36:23;1.87;;;1.12;;
62933;SDS011;49038;47.600;19.242;2023-05-07T17:39:25;2.15;;;1.20;;
62933;SDS011;49038;47.600;19.242;2023-05-07T17:42:31;11.75;;;1.87;;
62933;SDS011;49038;47.600;19.242;2023-05-07T17:45:33;4.47;;;2.05;;
62933;SDS011;49038;47.600;19.242;2023-05-07T17:48:35;4.32;;;2.15;;
62933;SDS011;49038;47.600;19.242;2023-05-07T17:51:37;4.60;;;2.65;;
62933;SDS011;49038;47.600;19.242;2023-05-07T17:54:55;3.35;;;2.20;;
62933;SDS011;49038;47.600;19.242;2023-05-07T17:57:57;4.45;;;1.98;;
62933;SDS011;49038;47.600;19.242;2023-05-07T18:00:59;3.05;;;1.85;;
62933;SDS011;49038;47.600;19.242;2023-05-07T18:04:02;2.80;;;1.80;;
62933;SDS011;49038;47.600;19.242;2023-05-07T18:07:04;5.05;;;2.05;;
62933;SDS011;49038;47.600;19.242;2023-05-07T18:10:06;2.00;;;1.50;;
62933;SDS011;49038;47.600;19.242;2023-05-07T18:13:09;6.43;;;1.27;;
62933;SDS011;49038;47.600;19.242;2023-05-07T18:16:11;2.83;;;1.83;;
62933;SDS011;49038;47.600;19.242;2023-05-07T18:19:15;2.45;;;1.83;;